createdAt,value
2017-08-28T00:01:25.241Z,6.63
2017-08-28T00:03:53.295Z,6.87
2017-08-28T00:06:21.368Z,5.70
2017-08-28T00:08:49.437Z,6.80
2017-08-28T00:11:17.504Z,6.10
2017-08-28T00:13:45.579Z,6.90
2017-08-28T00:16:13.666Z,6.97
2017-08-28T00:18:41.718Z,7.10
2017-08-28T00:21:09.774Z,6.37
2017-08-28T00:23:37.848Z,7.50
2017-08-28T00:26:06.442Z,6.43
2017-08-28T00:28:34.501Z,6.87
2017-08-28T00:31:02.587Z,7.07
2017-08-28T00:33:30.645Z,7.57
2017-08-28T00:35:58.783Z,7.60
2017-08-28T00:38:26.851Z,7.17
2017-08-28T00:40:54.930Z,6.87
2017-08-28T00:43:22.995Z,7.00
2017-08-28T00:45:51.063Z,7.47
2017-08-28T00:48:19.135Z,6.77
2017-08-28T00:50:47.195Z,7.60
2017-08-28T00:53:15.272Z,7.80
2017-08-28T00:55:43.338Z,7.60
2017-08-28T00:58:11.398Z,8.00
2017-08-28T01:00:39.478Z,7.57
2017-08-28T01:03:07.549Z,7.50
2017-08-28T01:05:35.626Z,7.23
2017-08-28T01:08:03.692Z,7.37
2017-08-28T01:10:31.762Z,6.97
2017-08-28T01:12:59.860Z,8.37
2017-08-28T01:15:27.902Z,7.40
2017-08-28T01:17:55.979Z,8.17
2017-08-28T01:20:24.047Z,7.73
2017-08-28T01:22:52.128Z,7.87
2017-08-28T01:25:20.223Z,7.23
2017-08-28T01:27:48.288Z,7.60
2017-08-28T01:30:17.124Z,7.50
2017-08-28T01:32:45.199Z,7.37
2017-08-28T01:35:13.281Z,7.67
2017-08-28T01:37:41.327Z,8.40
2017-08-28T01:40:09.394Z,7.83
2017-08-28T01:42:37.463Z,7.27
2017-08-28T01:45:05.539Z,7.30
2017-08-28T01:47:33.624Z,8.70
2017-08-28T01:50:01.696Z,7.27
2017-08-28T01:52:29.751Z,8.10
2017-08-28T01:54:57.822Z,8.40
2017-08-28T01:57:25.886Z,7.40
2017-08-28T01:59:53.974Z,7.80
2017-08-28T02:02:22.040Z,7.93
2017-08-28T02:04:50.108Z,7.07
2017-08-28T02:07:18.179Z,8.00
2017-08-28T02:09:46.255Z,7.67
2017-08-28T02:12:14.315Z,7.90
2017-08-28T02:14:42.384Z,9.00
2017-08-28T02:17:10.434Z,8.77
2017-08-28T02:19:38.516Z,8.70
2017-08-28T02:22:06.600Z,7.80
2017-08-28T02:24:34.646Z,8.37
2017-08-28T02:27:03.576Z,7.53
2017-08-28T02:29:31.731Z,8.00
2017-08-28T02:31:59.808Z,8.50
2017-08-28T02:34:27.876Z,7.37
2017-08-28T02:36:55.951Z,8.93
2017-08-28T02:39:23.997Z,7.80
2017-08-28T02:41:52.069Z,9.00
2017-08-28T02:44:20.139Z,7.53
2017-08-28T02:46:48.211Z,8.50
2017-08-28T02:49:16.278Z,8.30
2017-08-28T02:51:45.083Z,7.80
2017-08-28T02:54:13.120Z,7.73
2017-08-28T02:56:41.188Z,9.00
2017-08-28T02:59:09.258Z,8.23
2017-08-28T03:01:37.352Z,7.57
2017-08-28T03:04:06.191Z,8.60
2017-08-28T03:06:34.246Z,8.93
2017-08-28T03:09:02.313Z,9.53
2017-08-28T03:11:30.358Z,9.20
2017-08-28T03:13:58.430Z,9.73
2017-08-28T03:16:26.495Z,8.67
2017-08-28T03:18:54.567Z,8.20
2017-08-28T03:21:22.622Z,8.00
2017-08-28T03:23:50.696Z,8.20
2017-08-28T03:26:18.762Z,8.20
2017-08-28T03:28:46.839Z,8.43
2017-08-28T03:31:14.915Z,8.27
2017-08-28T03:33:42.989Z,9.27
2017-08-28T03:36:11.055Z,9.27
2017-08-28T03:38:39.122Z,9.20
2017-08-28T03:41:07.194Z,9.60
2017-08-28T03:43:35.264Z,7.53
2017-08-28T03:46:03.343Z,9.53
2017-08-28T03:48:31.426Z,9.07
2017-08-28T03:50:59.496Z,9.47
2017-08-28T03:53:27.571Z,9.67
2017-08-28T03:55:55.661Z,9.10
2017-08-28T03:58:23.734Z,8.47
2017-08-28T04:00:51.805Z,8.20
2017-08-28T04:03:19.870Z,9.57
2017-08-28T04:05:47.944Z,9.80
2017-08-28T04:08:16.003Z,8.97
2017-08-28T04:10:44.064Z,8.60
2017-08-28T04:13:12.122Z,9.70
2017-08-28T04:15:40.211Z,10.13
2017-08-28T04:18:08.259Z,9.17
2017-08-28T04:20:36.354Z,9.40
2017-08-28T04:23:04.440Z,9.77
2017-08-28T04:25:32.511Z,9.40
2017-08-28T04:28:01.184Z,8.37
2017-08-28T04:30:29.248Z,9.20
2017-08-28T04:32:57.318Z,10.17
2017-08-28T04:35:25.386Z,9.00
2017-08-28T04:37:53.459Z,10.17
2017-08-28T04:40:21.559Z,9.83
2017-08-28T04:42:49.618Z,8.93
2017-08-28T04:45:17.673Z,8.87
2017-08-28T04:47:45.742Z,9.80
2017-08-28T04:50:13.811Z,9.43
2017-08-28T04:52:42.777Z,9.17
2017-08-28T04:55:10.832Z,10.40
2017-08-28T04:57:38.890Z,9.47
2017-08-28T05:00:06.966Z,8.57
2017-08-28T05:02:35.034Z,8.97
2017-08-28T05:05:03.089Z,9.43
2017-08-28T05:07:31.218Z,9.67
2017-08-28T05:09:59.274Z,9.47
2017-08-28T05:12:27.338Z,9.30
2017-08-28T05:14:55.398Z,8.53
2017-08-28T05:17:23.463Z,8.30
2017-08-28T05:19:51.552Z,9.10
2017-08-28T05:22:19.630Z,9.20
2017-08-28T05:24:47.683Z,9.40
2017-08-28T05:27:15.742Z,9.03
2017-08-28T05:29:43.838Z,9.60
2017-08-28T05:32:11.913Z,9.17
2017-08-28T05:34:39.984Z,9.50
2017-08-28T05:37:08.059Z,11.10
2017-08-28T05:39:36.542Z,10.50
2017-08-28T05:42:04.614Z,10.90
2017-08-28T05:44:32.670Z,10.70
2017-08-28T05:47:00.926Z,9.83
2017-08-28T05:49:28.991Z,10.07
2017-08-28T05:51:57.063Z,10.90
2017-08-28T05:54:25.150Z,10.10
2017-08-28T05:56:53.210Z,9.20
2017-08-28T05:59:21.310Z,10.67
2017-08-28T06:01:49.383Z,10.93
2017-08-28T06:04:17.444Z,10.90
2017-08-28T06:06:45.535Z,13.20
2017-08-28T06:09:13.629Z,11.47
2017-08-28T06:11:41.682Z,9.67
2017-08-28T06:14:09.742Z,10.37
2017-08-28T06:16:37.817Z,10.07
2017-08-28T06:19:05.895Z,10.77
2017-08-28T06:21:33.954Z,11.50
2017-08-28T06:24:02.056Z,9.53
2017-08-28T06:26:30.134Z,11.03
2017-08-28T06:28:58.206Z,10.13
2017-08-28T06:31:26.290Z,11.00
2017-08-28T06:33:54.346Z,9.17
2017-08-28T06:36:22.411Z,10.20
2017-08-28T06:38:50.485Z,10.07
2017-08-28T06:41:18.543Z,10.27
2017-08-28T06:43:46.632Z,10.07
2017-08-28T06:46:14.690Z,9.67
2017-08-28T06:48:42.755Z,9.97
2017-08-28T06:51:10.815Z,9.97
2017-08-28T06:53:38.886Z,9.63
2017-08-28T06:56:06.957Z,9.70
2017-08-28T06:58:35.016Z,9.00
2017-08-28T07:01:03.086Z,8.80
2017-08-28T07:03:31.146Z,9.10
2017-08-28T07:05:59.219Z,9.07
2017-08-28T07:08:27.294Z,8.97
2017-08-28T07:10:55.359Z,9.10
2017-08-28T07:13:23.435Z,9.17
2017-08-28T07:15:52.913Z,8.03
2017-08-28T07:18:20.987Z,9.30
2017-08-28T07:20:49.048Z,9.47
2017-08-28T07:23:17.114Z,8.90
2017-08-28T07:25:45.171Z,9.13
2017-08-28T07:28:13.254Z,8.10
2017-08-28T07:30:41.329Z,9.10
2017-08-28T07:33:09.386Z,9.13
2017-08-28T07:35:37.447Z,10.13
2017-08-28T07:38:05.550Z,12.00
2017-08-28T07:40:33.599Z,9.30
2017-08-28T07:43:01.679Z,8.80
2017-08-28T07:45:29.752Z,8.40
2017-08-28T07:47:57.821Z,8.10
2017-08-28T07:50:25.868Z,8.60
2017-08-28T07:52:53.950Z,8.33
2017-08-28T07:55:22.010Z,7.90
2017-08-28T07:57:50.093Z,8.23
2017-08-28T08:00:18.157Z,8.13
2017-08-28T08:02:46.226Z,7.30
2017-08-28T08:05:14.280Z,7.60
2017-08-28T08:07:42.334Z,7.40
2017-08-28T08:10:10.394Z,7.43
2017-08-28T08:12:38.482Z,7.30
2017-08-28T08:15:06.574Z,7.73
2017-08-28T08:17:34.640Z,7.73
2017-08-28T08:20:02.718Z,7.27
2017-08-28T08:22:30.819Z,7.90
2017-08-28T08:24:58.854Z,8.03
2017-08-28T08:27:26.920Z,7.93
2017-08-28T08:29:54.967Z,6.50
2017-08-28T08:32:23.022Z,8.00
2017-08-28T08:34:51.111Z,6.80
2017-08-28T08:37:19.182Z,6.80
2017-08-28T08:39:47.283Z,7.13
2017-08-28T08:42:15.333Z,5.77
2017-08-28T08:44:43.427Z,6.47
2017-08-28T08:47:11.591Z,6.10
2017-08-28T08:49:39.632Z,6.60
2017-08-28T08:52:07.702Z,6.63
2017-08-28T08:54:36.556Z,6.23
2017-08-28T08:57:04.609Z,6.10
2017-08-28T08:59:32.702Z,6.33
2017-08-28T09:02:00.753Z,6.33
2017-08-28T09:04:28.811Z,6.10
2017-08-28T09:06:56.889Z,6.10
2017-08-28T09:09:24.946Z,5.80
2017-08-28T09:11:53.014Z,5.90
2017-08-28T09:14:21.086Z,5.70
2017-08-28T09:16:49.157Z,4.80
2017-08-28T09:19:17.979Z,5.60
2017-08-28T09:21:46.062Z,5.33
2017-08-28T09:24:14.143Z,5.10
2017-08-28T09:26:42.204Z,5.10
2017-08-28T09:29:10.271Z,5.07
2017-08-28T09:31:38.325Z,7.70
2017-08-28T09:34:06.389Z,5.20
2017-08-28T09:36:35.202Z,4.67
2017-08-28T09:39:03.273Z,4.57
2017-08-28T09:41:31.371Z,4.80
2017-08-28T09:44:00.215Z,5.50
2017-08-28T09:46:29.054Z,5.50
2017-08-28T09:48:57.098Z,5.80
2017-08-28T09:51:25.156Z,5.50
2017-08-28T09:53:53.218Z,5.07
2017-08-28T09:56:21.292Z,5.33
2017-08-28T09:58:49.358Z,4.77
2017-08-28T10:01:18.194Z,5.33
2017-08-28T10:03:46.271Z,4.70
2017-08-28T10:06:14.336Z,4.80
2017-08-28T10:08:42.407Z,4.40
2017-08-28T10:11:10.483Z,5.20
2017-08-28T10:13:38.554Z,4.50
2017-08-28T10:16:06.609Z,5.27
2017-08-28T10:18:34.684Z,4.40
2017-08-28T10:21:02.765Z,4.83
2017-08-28T10:23:30.852Z,5.20
2017-08-28T10:25:58.914Z,5.23
2017-08-28T10:28:26.998Z,4.00
2017-08-28T10:30:55.060Z,5.23
2017-08-28T10:33:23.161Z,5.00
2017-08-28T10:35:51.219Z,5.20
2017-08-28T10:38:19.277Z,5.17
2017-08-28T10:40:47.366Z,5.00
2017-08-28T10:43:15.415Z,4.60
2017-08-28T10:45:43.487Z,5.00
2017-08-28T10:48:12.326Z,4.90
2017-08-28T10:50:40.383Z,4.97
2017-08-28T10:53:16.894Z,5.27
2017-08-28T10:55:44.947Z,4.43
2017-08-28T10:58:13.059Z,4.53
2017-08-28T11:00:41.144Z,5.57
2017-08-28T11:03:09.199Z,4.10
2017-08-28T11:05:37.278Z,5.20
2017-08-28T11:08:05.360Z,5.07
2017-08-28T11:10:33.422Z,5.53
2017-08-28T11:13:01.499Z,4.70
2017-08-28T11:15:29.555Z,4.93
2017-08-28T11:17:57.619Z,5.00
2017-08-28T11:20:25.686Z,4.60
2017-08-28T11:22:53.788Z,4.90
2017-08-28T11:25:21.806Z,6.00
2017-08-28T11:27:49.885Z,9.93
2017-08-28T11:30:17.966Z,5.97
2017-08-28T11:32:46.060Z,6.70
2017-08-28T11:35:14.919Z,5.50
2017-08-28T11:37:43.755Z,4.60
2017-08-28T11:40:12.577Z,4.27
2017-08-28T11:42:40.643Z,4.60
2017-08-28T11:45:08.700Z,4.57
2017-08-28T11:47:36.775Z,4.63
2017-08-28T11:50:04.847Z,4.50
2017-08-28T11:52:32.923Z,4.70
2017-08-28T11:55:01.007Z,4.23
2017-08-28T11:57:29.070Z,3.22
2017-08-28T11:59:57.156Z,3.90
2017-08-28T12:02:25.208Z,4.00
2017-08-28T12:04:53.286Z,4.77
2017-08-28T12:07:21.373Z,4.67
2017-08-28T12:09:49.422Z,4.20
2017-08-28T12:12:17.485Z,4.40
2017-08-28T12:14:45.570Z,3.93
2017-08-28T12:17:13.649Z,4.00
2017-08-28T12:19:41.706Z,4.20
2017-08-28T12:22:09.769Z,4.27
2017-08-28T12:24:37.810Z,4.20
2017-08-28T12:27:05.974Z,4.20
2017-08-28T12:29:34.060Z,4.20
2017-08-28T12:32:02.117Z,4.63
2017-08-28T12:34:30.187Z,4.20
2017-08-28T12:36:58.253Z,4.87
2017-08-28T12:39:26.328Z,4.40
2017-08-28T12:41:54.365Z,4.23
2017-08-28T12:44:22.426Z,4.60
2017-08-28T12:46:50.470Z,4.87
2017-08-28T12:49:19.307Z,4.47
2017-08-28T12:51:47.445Z,4.37
2017-08-28T12:54:15.504Z,4.13
2017-08-28T12:56:44.332Z,21.40
2017-08-28T12:59:12.401Z,4.17
2017-08-28T13:01:40.483Z,4.30
2017-08-28T13:04:08.563Z,4.70
2017-08-28T13:06:36.640Z,4.27
2017-08-28T13:09:04.685Z,4.23
2017-08-28T13:11:32.752Z,3.93
2017-08-28T13:14:00.836Z,4.10
2017-08-28T13:16:29.066Z,4.77
2017-08-28T13:18:57.127Z,3.90
2017-08-28T13:21:25.194Z,4.07
2017-08-28T13:23:53.285Z,4.20
2017-08-28T13:26:21.349Z,4.17
2017-08-28T13:28:49.412Z,4.40
2017-08-28T13:31:17.490Z,4.87
2017-08-28T13:33:45.557Z,4.70
2017-08-28T13:36:13.622Z,5.00
2017-08-28T13:38:41.709Z,4.80
2017-08-28T13:41:09.783Z,4.73
2017-08-28T13:43:37.883Z,4.80
2017-08-28T13:46:05.962Z,4.40
2017-08-28T13:48:34.049Z,4.20
2017-08-28T13:51:02.112Z,4.53
2017-08-28T13:53:30.210Z,4.37
2017-08-28T13:55:58.262Z,4.50
2017-08-28T13:58:26.388Z,4.40
2017-08-28T14:00:54.426Z,5.30
2017-08-28T14:03:22.498Z,4.23
2017-08-28T14:05:50.584Z,4.50
2017-08-28T14:08:18.684Z,4.53
2017-08-28T14:10:46.758Z,4.67
2017-08-28T14:13:14.842Z,5.07
2017-08-28T14:15:42.907Z,5.77
2017-08-28T14:18:11.416Z,5.60
2017-08-28T14:20:39.910Z,5.70
2017-08-28T14:23:07.984Z,5.27
2017-08-28T14:25:36.043Z,4.50
2017-08-28T14:28:04.115Z,4.97
2017-08-28T14:30:32.174Z,4.67
2017-08-28T14:33:00.256Z,4.13
2017-08-28T14:35:28.331Z,4.73
2017-08-28T14:37:56.397Z,4.63
2017-08-28T14:40:24.467Z,4.30
2017-08-28T14:42:52.626Z,5.37
2017-08-28T14:45:20.670Z,4.80
2017-08-28T14:47:48.734Z,4.50
2017-08-28T14:50:16.814Z,4.83
2017-08-28T14:52:44.892Z,5.43
2017-08-28T14:55:12.974Z,5.60
2017-08-28T14:57:41.043Z,4.70
2017-08-28T15:00:09.115Z,4.70
2017-08-28T15:02:37.175Z,4.70
2017-08-28T15:05:05.264Z,4.60
2017-08-28T15:07:33.324Z,4.83
2017-08-28T15:10:01.374Z,4.93
2017-08-28T15:12:29.462Z,4.50
2017-08-28T15:14:57.540Z,4.73
2017-08-28T15:17:25.607Z,5.07
2017-08-28T15:19:53.675Z,4.97
2017-08-28T15:22:21.763Z,4.63
2017-08-28T15:24:49.839Z,4.67
2017-08-28T15:27:17.903Z,5.23
2017-08-28T15:29:46.013Z,6.37
2017-08-28T15:32:14.066Z,6.13
2017-08-28T15:34:42.123Z,4.93
2017-08-28T15:37:10.219Z,5.17
2017-08-28T15:39:38.318Z,4.90
2017-08-28T15:42:06.389Z,5.00
2017-08-28T15:44:34.455Z,4.57
2017-08-28T15:47:02.544Z,8.17
2017-08-28T15:49:31.419Z,4.93
2017-08-28T15:51:59.494Z,4.50
2017-08-28T15:54:27.558Z,4.60
2017-08-28T15:56:55.663Z,4.23
2017-08-28T15:59:23.751Z,4.73
2017-08-28T16:01:51.835Z,4.80
2017-08-28T16:04:19.913Z,4.97
2017-08-28T16:06:48.591Z,5.13
2017-08-28T16:09:16.662Z,4.60
2017-08-28T16:11:44.781Z,4.20
2017-08-28T16:14:12.871Z,4.63
2017-08-28T16:16:40.927Z,4.33
2017-08-28T16:19:08.999Z,4.57
2017-08-28T16:21:37.052Z,4.70
2017-08-28T16:24:05.199Z,4.90
2017-08-28T16:26:33.263Z,4.77
2017-08-28T16:29:01.327Z,4.43
2017-08-28T16:31:29.418Z,4.90
2017-08-28T16:33:57.504Z,4.57
2017-08-28T16:36:25.837Z,4.20
2017-08-28T16:38:54.736Z,4.40
2017-08-28T16:41:22.898Z,4.27
2017-08-28T16:43:50.968Z,4.73
2017-08-28T16:46:19.058Z,4.73
2017-08-28T16:48:47.172Z,4.83
2017-08-28T16:51:15.287Z,4.00
2017-08-28T16:53:43.359Z,3.80
2017-08-28T16:56:11.466Z,4.43
2017-08-28T16:58:40.431Z,4.33
2017-08-28T17:01:08.497Z,4.13
2017-08-28T17:03:36.629Z,4.30
2017-08-28T17:06:04.699Z,10.50
2017-08-28T17:08:32.798Z,4.60
2017-08-28T17:11:01.632Z,4.43
2017-08-28T17:13:29.771Z,4.27
2017-08-28T17:15:58.633Z,4.60
2017-08-28T17:18:26.708Z,4.10
2017-08-28T17:20:54.905Z,4.77
2017-08-28T17:23:22.992Z,12.40
2017-08-28T17:25:51.059Z,11.70
2017-08-28T17:28:19.610Z,6.20
2017-08-28T17:30:48.536Z,4.73
2017-08-28T17:33:16.656Z,4.73
2017-08-28T17:35:44.799Z,5.40
2017-08-28T17:38:13.677Z,5.30
2017-08-28T17:40:41.770Z,4.80
2017-08-28T17:43:09.859Z,4.97
2017-08-28T17:45:38.675Z,4.70
2017-08-28T17:48:06.757Z,4.87
2017-08-28T17:50:34.839Z,5.00
2017-08-28T17:53:02.902Z,5.00
2017-08-28T17:55:31.010Z,4.40
2017-08-28T17:58:00.050Z,4.60
2017-08-28T18:43:42.519Z,5.63
2017-08-28T18:46:10.596Z,6.10
2017-08-28T18:48:38.656Z,4.57
2017-08-28T18:51:06.764Z,5.30
2017-08-28T18:53:34.831Z,5.47
2017-08-28T18:56:02.917Z,4.97
2017-08-28T18:58:30.997Z,4.77
2017-08-28T19:00:59.903Z,4.20
2017-08-28T19:03:27.979Z,4.17
2017-08-28T19:05:56.055Z,4.23
2017-08-28T19:08:24.134Z,4.60
2017-08-28T19:10:52.225Z,4.50
2017-08-28T19:13:20.362Z,4.97
2017-08-28T19:15:48.397Z,4.90
2017-08-28T19:18:16.496Z,4.73
2017-08-28T19:20:44.547Z,4.87
2017-08-28T19:23:12.614Z,4.43
2017-08-28T19:25:40.740Z,6.67
2017-08-28T19:28:09.557Z,4.87
2017-08-28T19:30:37.644Z,4.70
2017-08-28T19:33:05.703Z,4.93
2017-08-28T19:35:33.780Z,6.63
2017-08-28T19:38:01.843Z,7.23
2017-08-28T19:40:29.910Z,4.90
2017-08-28T19:42:58.010Z,4.90
2017-08-28T19:45:26.239Z,5.23
2017-08-28T19:47:54.316Z,5.20
2017-08-28T19:50:22.384Z,5.43
2017-08-28T19:52:50.469Z,5.90
2017-08-28T19:55:18.591Z,5.60
2017-08-28T19:57:46.646Z,7.03
2017-08-28T20:00:14.703Z,7.03
2017-08-28T20:02:48.524Z,7.10
2017-08-28T20:05:16.648Z,6.27
2017-08-28T20:10:19.174Z,5.43
2017-08-28T20:12:47.253Z,5.37
2017-08-28T20:15:15.326Z,5.67
2017-08-28T20:17:43.440Z,6.13
2017-08-28T20:20:11.509Z,5.90
2017-08-28T20:22:39.625Z,6.60
2017-08-28T20:25:08.526Z,5.53
2017-08-28T20:27:36.572Z,6.13
2017-08-28T20:30:05.462Z,5.37
2017-08-28T20:32:34.306Z,5.77
2017-08-28T20:35:02.410Z,6.20
2017-08-28T20:37:30.467Z,5.93
2017-08-28T20:39:58.543Z,6.43
2017-08-28T20:42:26.623Z,5.57
2017-08-28T20:44:54.662Z,5.77
2017-08-28T20:47:22.726Z,5.60
2017-08-28T20:49:50.804Z,6.30
2017-08-28T20:52:18.870Z,6.10
2017-08-28T20:54:46.937Z,6.23
2017-08-28T20:57:15.043Z,6.63
2017-08-28T20:59:43.112Z,7.23
2017-08-28T21:02:11.175Z,8.00
2017-08-28T21:04:39.244Z,7.60
2017-08-28T21:07:07.298Z,6.87
2017-08-28T21:09:35.367Z,6.80
2017-08-28T21:12:03.420Z,7.63
2017-08-28T21:14:31.498Z,6.70
2017-08-28T21:16:59.571Z,6.00
2017-08-28T21:19:27.647Z,6.90
2017-08-28T21:21:55.705Z,6.50
2017-08-28T21:24:23.805Z,6.50
2017-08-28T21:26:51.885Z,6.07
2017-08-28T21:29:19.958Z,5.83
2017-08-28T21:31:48.016Z,6.07
2017-08-28T21:34:16.128Z,6.40
2017-08-28T21:36:44.148Z,6.50
2017-08-28T21:39:12.215Z,7.23
2017-08-28T21:41:40.299Z,6.17
2017-08-28T21:44:08.372Z,6.33
2017-08-28T21:46:36.457Z,6.57
2017-08-28T21:49:04.502Z,6.83
2017-08-28T21:51:32.581Z,7.53
2017-08-28T21:54:00.644Z,7.90
2017-08-28T21:56:28.720Z,6.67
2017-08-28T21:58:56.788Z,6.93
2017-08-28T22:01:24.859Z,6.43
2017-08-28T22:03:52.934Z,6.00
2017-08-28T22:06:20.998Z,6.30
2017-08-28T22:08:49.081Z,7.07
2017-08-28T22:11:17.150Z,7.63
2017-08-28T22:13:45.199Z,8.20
2017-08-28T22:16:13.349Z,8.17
2017-08-28T22:18:41.367Z,7.40
2017-08-28T22:21:09.443Z,8.00
2017-08-28T22:23:37.926Z,8.77
2017-08-28T22:26:06.478Z,9.53
2017-08-28T22:28:34.554Z,9.90
2017-08-28T22:31:02.631Z,8.97
2017-08-28T22:33:30.701Z,9.60
2017-08-28T22:35:58.768Z,9.47
2017-08-28T22:38:26.834Z,9.60
2017-08-28T22:40:54.909Z,9.63
2017-08-28T22:43:22.996Z,9.47
2017-08-28T22:45:51.059Z,8.10
2017-08-28T22:48:19.129Z,8.43
2017-08-28T22:50:47.207Z,8.60
2017-08-28T22:53:15.565Z,7.50
2017-08-28T22:55:43.591Z,8.80
2017-08-28T22:58:11.666Z,7.90
2017-08-28T23:00:39.738Z,9.00
2017-08-28T23:03:07.834Z,8.70
2017-08-28T23:05:35.938Z,7.77
2017-08-28T23:08:03.994Z,7.43
2017-08-28T23:10:32.047Z,7.43
2017-08-28T23:13:01.059Z,8.10
2017-08-28T23:15:29.128Z,7.80
2017-08-28T23:17:57.190Z,8.40
2017-08-28T23:20:25.248Z,7.53
2017-08-28T23:22:53.318Z,7.40
2017-08-28T23:25:21.376Z,7.37
2017-08-28T23:27:49.446Z,7.60
2017-08-28T23:30:17.501Z,7.60
2017-08-28T23:32:45.571Z,7.83
2017-08-28T23:35:13.636Z,6.97
2017-08-28T23:37:41.722Z,7.10
2017-08-28T23:40:10.334Z,8.37
2017-08-28T23:42:38.391Z,7.70
2017-08-28T23:45:06.459Z,6.77
2017-08-28T23:47:34.510Z,6.73
2017-08-28T23:50:02.598Z,6.70
2017-08-28T23:52:30.674Z,7.47
2017-08-28T23:54:58.768Z,7.13
2017-08-28T23:57:27.599Z,7.40
2017-08-28T23:59:55.653Z,7.30
